Share

Ludowici, GA (31316)

12:42 AM EDT on April 24, 2014 (GMT -0400)
Elim / Davenport Acres - Long County (KGALUDOW1) Elev 89 ft | 31.79 °N, 81.69 °W | Change Station

Current weather conditions updated 2 seconds ago

Clear
Clear
61.8 °F
Feels Like 61.8 °F
N
0.0
Wind Variable Wind from West
Gusts 0.0 mph
Sunrise 6:48 AM
Sunset 8:02 PM
Moon Waning Crescent

Today is forecast to be nearly the same temperature as yesterday.

Pressure 29.94 in
Visibility 7.0 miles
Clouds Clear
Dew Point 58 °F
Humidity 89%
Rainfall 0.00 in
Snow Depth Not available.
UV 0 out of 16
Pollen 8.20 out of 12
Air Quality Not available.
Flu Activity Sporadic
METAR KJES 240355Z AUTO 00000KT 7SM CLR 14/14 A2994 RMK AO2

More Conditions Fewer Conditions

Pressure 29.94 in
Visibility 7.0 miles
Clouds Clear
Dew Point 58 °F
Humidity 89%
Rainfall 0.00 in
Snow Depth Not available.
UV 0 out of 16
Pollen 8.20 out of 12
Air Quality Not available.
Flu Activity Sporadic
METAR KJES 240355Z AUTO 00000KT 7SM CLR 14/14 A2994 RMK AO2

More Conditions Fewer Conditions

10-Day Weather Forecast

Almanac

Astronomy

Apr. 24, 2014 Rise Set
Actual Time 6:48 AM EDT 8:02 PM EDT
Civil Twilight 6:22 AM EDT 8:27 PM EDT
Nautical Twilight 5:52 AM EDT 8:58 PM EDT
Astronomical Twilight 5:21 AM EDT 9:29 PM EDT
Moon 3:39 AM EDT 3:33 PM EDT
Length of Visible Light 14h 04m
Length of Day
13h 13m
Tomorrow will be 1m 45s longer.
Waning Crescent, 29% of the Moon is Illuminated
Today
Waning Crescent
Apr 29
New
May 6
First Quarter
May 14
Full
May 21
Last Quarter

Today's Extremes

State Highs State Lows

Community

  • Stacked
    Stacked
  • Balance
    Balance
  • Nestled In
    Nestled In
  • Stunning Sunrise
    Stunning Sunrise
  • spring flowers
    spring flowers

WunderPhotos

Upload Photos

1,704,562 photos uploaded!

WunderBlogs® & News

Nearby

Snow Depth

Station Depth Elevation
No new snow has been reported.

Coastal Water Temperatures

Place Temperature
No Stations Reporting

Earthquake Activity

City Distance Mag. Time & Date
No recent earthquake activity has been reported nearby.
Minimum magnitude displayed is 2.5.

Nearby Weather Stations

Station Location Temp. Dew Point Humidity Wind Precip. Elev Updated Type
Elim / Davenport Acres - Long County, Ludowici, GA 61.8 °F 58 °F 89% West  at  0.0 mph 0.00 in / hr 89 ft 12:42 AM EDT Rapid Fire
Center of Liberty, Liberty County, GA 58.9 °F 58 °F 95% NW  at  0.0 mph 0.00 in / hr 21 ft 12:41 AM EDT Rapid Fire
RAWS MIDWAY GA, Midway, GA 60 °F 58 °F 92% North  at  0 mph 0.00 in / hr 15 ft 12:04 AM EDT MADIS

Show More Stations Show Fewer Stations

What do you think?

We're not finished. Please let us know what you like, what you don't like, and what you are still missing.